Time;durP1;ratioP1;P1;durP2;ratioP2;P2;SDS_P1;SDS_P2;PMS_P1;PMS_P2;Temp;Humidity;BMP_temperature;BMP_pressure;BME280_temperature;BME280_humidity;BME280_pressure;Samples;Min_cycle;Max_cycle;Signal;HPM_P1;HPM_P2
2023/07/18 00:00:40;;;;;;;3.30;3.00;;;23.80;65.20;;;;;;4955149;28;20185;-70
2023/07/18 00:03:07;;;;;;;3.63;3.33;;;23.80;65.20;;;;;;4971610;28;20227;-70
2023/07/18 00:05:34;;;;;;;3.28;2.97;;;23.80;65.10;;;;;;4970763;28;20201;-70
2023/07/18 00:08:00;;;;;;;3.30;3.00;;;23.80;65.10;;;;;;4972308;28;20205;-70
2023/07/18 00:10:26;;;;;;;3.42;3.13;;;23.80;65.20;;;;;;4955438;28;20205;-70
2023/07/18 00:12:52;;;;;;;3.35;3.08;;;23.80;65.20;;;;;;4971252;28;20229;-70
2023/07/18 00:18:50;;;;;;;3.35;3.05;;;23.70;65.40;;;;;;5531759;22;20310;-72
2023/07/18 00:21:16;;;;;;;3.00;2.80;;;23.70;65.10;;;;;;4988866;28;20212;-73
2023/07/18 00:23:42;;;;;;;3.55;3.25;;;23.70;65.10;;;;;;4988470;28;20213;-73
2023/07/18 00:26:08;;;;;;;2.95;2.72;;;23.70;65.20;;;;;;4980444;28;20215;-73
2023/07/18 00:28:35;;;;;;;3.45;3.15;;;23.70;65.10;;;;;;4976859;28;20182;-72
2023/07/18 00:31:03;;;;;;;3.35;3.05;;;23.70;65.10;;;;;;4980021;28;20191;-74
2023/07/18 00:33:29;;;;;;;2.90;2.70;;;23.70;65.20;;;;;;4986699;28;20244;-73
2023/07/18 00:35:54;;;;;;;3.78;3.38;;;23.70;65.10;;;;;;4993225;28;20261;-73
2023/07/18 00:38:20;;;;;;;3.22;2.95;;;23.80;65.20;;;;;;4974343;28;20198;-73
2023/07/18 00:40:49;;;;;;;3.22;2.92;;;23.80;65.10;;;;;;4976879;28;20191;-72
2023/07/18 00:43:17;;;;;;;3.10;2.80;;;23.80;65.20;;;;;;4972957;28;20214;-72
2023/07/18 00:45:48;;;;;;;2.92;2.70;;;23.70;65.10;;;;;;4984468;28;20208;-72
2023/07/18 00:48:14;;;;;;;3.10;2.80;;;23.70;65.10;;;;;;4996277;28;20213;-72
2023/07/18 00:50:41;;;;;;;3.20;2.90;;;23.70;65.20;;;;;;4985881;28;20225;-72
2023/07/18 00:53:07;;;;;;;3.45;3.13;;;23.70;65.10;;;;;;4988977;28;20679;-72
2023/07/18 00:55:33;;;;;;;3.30;3.00;;;23.70;65.10;;;;;;4984474;28;20279;-72
2023/07/18 00:58:03;;;;;;;3.13;2.88;;;23.70;65.10;;;;;;4989190;28;20268;-72
2023/07/18 01:00:29;;;;;;;3.28;2.97;;;23.70;65.00;;;;;;4975397;28;20192;-72
2023/07/18 01:02:54;;;;;;;3.13;2.83;;;23.70;65.00;;;;;;4989680;28;20212;-73
2023/07/18 01:05:20;;;;;;;3.30;3.00;;;23.70;65.00;;;;;;4969620;28;20185;-73
2023/07/18 01:07:47;;;;;;;2.67;2.47;;;23.70;65.10;;;;;;4966876;28;20193;-72
2023/07/18 01:10:18;;;;;;;2.80;2.60;;;23.70;65.10;;;;;;4979760;28;20217;-73
2023/07/18 01:12:45;;;;;;;3.20;3.00;;;23.70;65.20;;;;;;4983614;28;20188;-73
2023/07/18 01:15:12;;;;;;;2.97;2.78;;;23.70;65.20;;;;;;4972530;28;20237;-72
2023/07/18 01:17:46;;;;;;;3.28;2.97;;;23.70;65.20;;;;;;4977849;28;20544;-72
2023/07/18 01:20:26;;;;;;;2.58;2.38;;;23.70;65.20;;;;;;4994565;28;20216;-73
2023/07/18 01:22:56;;;;;;;3.28;2.97;;;23.70;65.20;;;;;;4978700;28;20239;-73
2023/07/18 01:25:22;;;;;;;3.55;3.00;;;23.70;65.10;;;;;;4981859;28;20198;-73
2023/07/18 01:27:52;;;;;;;2.72;2.53;;;23.70;65.10;;;;;;4989036;28;20229;-73
2023/07/18 01:30:24;;;;;;;2.88;2.67;;;23.60;65.00;;;;;;4997089;28;20255;-73
2023/07/18 01:32:52;;;;;;;3.10;2.80;;;23.60;65.00;;;;;;4985285;28;20216;-73
2023/07/18 01:35:21;;;;;;;2.53;2.33;;;23.70;65.00;;;;;;4970398;28;20198;-73
2023/07/18 01:37:48;;;;;;;2.80;2.60;;;23.70;65.10;;;;;;5000022;28;20189;-73
2023/07/18 01:40:19;;;;;;;3.70;3.10;;;23.60;65.00;;;;;;4988177;28;20197;-73
2023/07/18 01:42:48;;;;;;;2.95;2.63;;;23.70;65.20;;;;;;4973794;28;20185;-73
2023/07/18 01:45:14;;;;;;;2.83;2.53;;;23.60;64.90;;;;;;5000120;28;20193;-73
2023/07/18 01:47:40;;;;;;;2.78;2.58;;;23.60;65.70;;;;;;4988787;28;20205;-73
2023/07/18 01:50:07;;;;;;;2.72;2.53;;;23.60;65.10;;;;;;4993798;28;20255;-72
2023/07/18 01:52:36;;;;;;;3.10;2.88;;;23.60;65.00;;;;;;4961980;28;20239;-72
2023/07/18 01:55:05;;;;;;;2.90;2.70;;;23.60;65.10;;;;;;4997219;28;20193;-72
2023/07/18 01:57:39;;;;;;;2.65;2.45;;;23.60;65.10;;;;;;4984469;28;20276;-73
2023/07/18 02:00:11;;;;;;;2.97;2.78;;;23.60;65.00;;;;;;4995983;28;20203;-73
2023/07/18 02:02:40;;;;;;;2.90;2.40;;;23.60;65.00;;;;;;4986566;28;20199;-73
2023/07/18 02:05:08;;;;;;;3.05;2.38;;;23.60;64.90;;;;;;4975477;28;20571;-73
2023/07/18 02:07:34;;;;;;;2.90;2.65;;;23.60;64.90;;;;;;4991976;28;20259;-73
2023/07/18 02:10:01;;;;;;;2.88;2.53;;;23.60;64.90;;;;;;4976726;28;20205;-73
2023/07/18 02:12:27;;;;;;;4.28;2.35;;;23.60;64.90;;;;;;4973944;28;20181;-73
2023/07/18 02:14:54;;;;;;;2.83;2.63;;;23.60;64.90;;;;;;4998295;28;20213;-73
2023/07/18 02:17:20;;;;;;;2.40;2.20;;;23.60;64.90;;;;;;4990272;28;20184;-73
2023/07/18 02:19:46;;;;;;;2.42;2.22;;;23.60;64.90;;;;;;4988359;28;20212;-73
2023/07/18 02:22:12;;;;;;;2.42;2.22;;;23.60;64.90;;;;;;4986860;28;20202;-73
2023/07/18 02:24:41;;;;;;;2.70;2.50;;;23.60;64.90;;;;;;4971907;28;20221;-73
2023/07/18 02:27:07;;;;;;;2.33;2.13;;;23.60;64.90;;;;;;4983160;28;20203;-73
2023/07/18 02:29:32;;;;;;;2.65;2.45;;;23.60;65.00;;;;;;4992108;28;20239;-72
2023/07/18 02:31:59;;;;;;;2.70;2.50;;;23.60;65.00;;;;;;4976325;28;20387;-72
2023/07/18 02:34:27;;;;;;;2.63;2.42;;;23.60;65.10;;;;;;4965540;28;20265;-72
2023/07/18 02:36:53;;;;;;;2.50;2.30;;;23.60;65.00;;;;;;4980683;28;20186;-72
2023/07/18 02:39:20;;;;;;;2.78;2.58;;;23.60;65.00;;;;;;4981156;28;20200;-72
2023/07/18 02:41:47;;;;;;;3.15;2.65;;;23.60;64.90;;;;;;4970619;28;20216;-73
2023/07/18 02:44:13;;;;;;;2.38;2.20;;;23.60;65.10;;;;;;4978578;28;20314;-72
2023/07/18 02:46:40;;;;;;;2.10;1.98;;;23.60;65.00;;;;;;4975635;28;20193;-73
2023/07/18 02:49:06;;;;;;;2.47;2.28;;;23.60;65.00;;;;;;4968021;28;20220;-73
2023/07/18 02:51:32;;;;;;;2.30;2.20;;;23.60;64.90;;;;;;4968193;28;20235;-72
2023/07/18 02:53:58;;;;;;;2.35;2.15;;;23.60;65.00;;;;;;4992699;28;20209;-73
2023/07/18 02:56:24;;;;;;;2.40;2.20;;;23.60;64.90;;;;;;4988975;28;20190;-73
2023/07/18 02:58:50;;;;;;;2.60;2.40;;;23.50;64.80;;;;;;4976188;28;20217;-73
2023/07/18 03:01:19;;;;;;;3.13;2.35;;;23.50;64.80;;;;;;4968624;28;20260;-74
2023/07/18 03:03:45;;;;;;;2.65;2.45;;;23.60;64.90;;;;;;4964136;28;20220;-73
2023/07/18 03:06:15;;;;;;;2.42;2.22;;;23.60;64.90;;;;;;4969367;28;20191;-73
2023/07/18 03:08:41;;;;;;;2.30;2.13;;;23.60;64.90;;;;;;4976547;28;20207;-73
2023/07/18 03:11:07;;;;;;;2.40;2.20;;;23.60;64.80;;;;;;4989213;28;20189;-73
2023/07/18 03:13:33;;;;;;;2.30;2.10;;;23.60;64.80;;;;;;4983481;28;20204;-73
2023/07/18 03:15:59;;;;;;;2.50;2.30;;;23.60;64.70;;;;;;4965326;28;20205;-73
2023/07/18 03:18:25;;;;;;;2.45;2.25;;;23.50;64.80;;;;;;4987205;28;20188;-72
2023/07/18 03:20:51;;;;;;;3.15;2.42;;;23.50;64.80;;;;;;4963959;28;20220;-72
2023/07/18 03:23:19;;;;;;;2.92;2.22;;;23.50;64.70;;;;;;4973784;28;20263;-72
2023/07/18 03:25:44;;;;;;;2.45;2.25;;;23.50;64.80;;;;;;4971979;28;20201;-72
2023/07/18 03:28:10;;;;;;;2.30;2.10;;;23.60;64.90;;;;;;4971062;28;20276;-73
2023/07/18 03:30:36;;;;;;;2.40;2.20;;;23.50;64.80;;;;;;4980681;28;20213;-73
2023/07/18 03:33:04;;;;;;;2.33;2.13;;;23.50;64.80;;;;;;4972307;28;20205;-73
2023/07/18 03:35:30;;;;;;;2.60;2.40;;;23.50;64.80;;;;;;4960216;28;20196;-73
2023/07/18 03:37:57;;;;;;;2.17;2.08;;;23.50;64.80;;;;;;4971057;28;20263;-73
2023/07/18 03:40:23;;;;;;;2.30;2.10;;;23.50;64.80;;;;;;4981872;28;20232;-73
2023/07/18 03:42:49;;;;;;;2.60;2.40;;;23.50;64.70;;;;;;4974997;28;20193;-73
2023/07/18 03:45:16;;;;;;;2.28;2.08;;;23.50;64.70;;;;;;4990674;28;20190;-73
2023/07/18 03:47:43;;;;;;;2.53;2.25;;;23.50;64.80;;;;;;4983324;28;20189;-73
2023/07/18 03:50:15;;;;;;;2.33;2.13;;;23.50;64.70;;;;;;4990976;28;20234;-73
2023/07/18 03:52:41;;;;;;;2.10;1.90;;;23.50;64.70;;;;;;4979676;28;20578;-73
2023/07/18 03:55:08;;;;;;;2.35;2.15;;;23.50;64.80;;;;;;4976278;28;20190;-73
2023/07/18 03:57:34;;;;;;;2.10;2.00;;;23.50;64.70;;;;;;4978635;28;20194;-73
2023/07/18 04:00:06;;;;;;;2.65;2.15;;;23.40;64.50;;;;;;4983958;28;20236;-73
2023/07/18 04:02:31;;;;;;;2.35;2.15;;;23.50;64.60;;;;;;4986591;28;20213;-73
2023/07/18 04:04:57;;;;;;;2.10;1.90;;;23.40;64.50;;;;;;4969687;28;20221;-74
2023/07/18 04:07:24;;;;;;;2.50;2.30;;;23.50;64.70;;;;;;4986034;28;20188;-73
2023/07/18 04:09:50;;;;;;;2.10;1.92;;;23.50;64.70;;;;;;4997982;28;20563;-73
2023/07/18 04:12:16;;;;;;;2.58;2.20;;;23.50;64.80;;;;;;4987546;28;20211;-74
2023/07/18 04:14:42;;;;;;;1.77;1.65;;;23.50;64.60;;;;;;4985792;28;20263;-74
2023/07/18 04:17:08;;;;;;;2.20;2.00;;;23.40;64.60;;;;;;4978019;28;20208;-74
2023/07/18 04:19:35;;;;;;;1.95;1.85;;;23.50;64.70;;;;;;4958320;28;20220;-73
2023/07/18 04:22:02;;;;;;;2.50;2.28;;;23.40;64.50;;;;;;4986883;28;20197;-72
2023/07/18 04:24:30;;;;;;;2.28;2.15;;;23.50;64.80;;;;;;4962184;28;20213;-73
2023/07/18 04:26:56;;;;;;;2.38;2.17;;;23.40;64.70;;;;;;4999447;28;20231;-73
2023/07/18 04:29:22;;;;;;;1.88;1.77;;;23.40;64.70;;;;;;4996229;28;20213;-73
2023/07/18 04:31:47;;;;;;;2.60;2.33;;;23.40;64.70;;;;;;4953707;28;20204;-73
2023/07/18 04:34:15;;;;;;;2.20;2.00;;;23.40;64.50;;;;;;4978035;28;20217;-73
2023/07/18 04:36:42;;;;;;;2.00;1.90;;;23.40;64.50;;;;;;4972879;28;20189;-73
2023/07/18 04:39:09;;;;;;;1.83;1.73;;;23.40;64.50;;;;;;4973840;28;20197;-72
2023/07/18 04:41:35;;;;;;;2.17;1.90;;;23.40;64.90;;;;;;4986164;28;20198;-72
2023/07/18 04:44:03;;;;;;;2.92;2.25;;;23.40;64.50;;;;;;4984620;28;20263;-73
2023/07/18 04:46:29;;;;;;;2.17;2.05;;;23.50;64.60;;;;;;4978688;28;20201;-72
2023/07/18 04:48:55;;;;;;;2.15;1.92;;;23.40;64.50;;;;;;4974438;28;20753;-72
2023/07/18 04:51:20;;;;;;;2.10;1.90;;;23.40;64.50;;;;;;4965221;28;20185;-73
2023/07/18 04:53:47;;;;;;;2.10;1.83;;;23.40;64.50;;;;;;4960234;28;20218;-72
2023/07/18 04:56:12;;;;;;;1.85;1.75;;;23.40;64.50;;;;;;4977358;28;20239;-73
2023/07/18 04:58:38;;;;;;;2.25;1.90;;;23.40;64.50;;;;;;4981428;28;20243;-72
2023/07/18 05:01:04;;;;;;;2.30;1.90;;;23.40;64.50;;;;;;4990896;28;20195;-72
2023/07/18 05:03:30;;;;;;;2.00;1.90;;;23.40;64.50;;;;;;4988537;28;20224;-72
2023/07/18 05:05:56;;;;;;;1.90;1.80;;;23.40;64.50;;;;;;4986836;28;20181;-72
2023/07/18 05:08:22;;;;;;;2.13;1.77;;;23.40;64.50;;;;;;4986711;28;20216;-72
2023/07/18 05:10:50;;;;;;;1.85;1.73;;;23.40;64.30;;;;;;4975192;28;20251;-72
2023/07/18 05:13:16;;;;;;;1.85;1.75;;;23.40;64.30;;;;;;4960995;28;20205;-72
2023/07/18 05:15:42;;;;;;;1.77;1.67;;;23.40;64.50;;;;;;4989314;28;20410;-72
2023/07/18 05:18:09;;;;;;;2.05;1.95;;;23.40;64.50;;;;;;4973576;28;20280;-72
2023/07/18 05:20:35;;;;;;;1.75;1.65;;;23.40;64.40;;;;;;4960450;28;20188;-74
2023/07/18 05:23:01;;;;;;;1.92;1.80;;;23.40;64.30;;;;;;4987451;28;20213;-73
2023/07/18 05:25:27;;;;;;;1.70;1.60;;;23.40;64.50;;;;;;4991305;28;20723;-72
2023/07/18 05:27:54;;;;;;;1.73;1.63;;;23.40;64.30;;;;;;4979990;28;20202;-71
2023/07/18 05:30:20;;;;;;;1.77;1.67;;;23.40;64.40;;;;;;4989545;28;20228;-72
2023/07/18 05:32:52;;;;;;;1.92;1.73;;;23.40;64.20;;;;;;4973117;28;20244;-72
2023/07/18 05:35:18;;;;;;;2.17;1.85;;;23.40;64.40;;;;;;4972817;28;20180;-72
2023/07/18 05:37:44;;;;;;;2.10;1.90;;;23.40;64.30;;;;;;4987796;28;20194;-72
2023/07/18 05:40:12;;;;;;;1.80;1.70;;;23.30;64.30;;;;;;4988174;28;20218;-73
2023/07/18 05:42:39;;;;;;;2.22;1.80;;;23.40;64.30;;;;;;4974918;28;20220;-72
2023/07/18 05:45:07;;;;;;;1.80;1.70;;;23.40;64.40;;;;;;5001719;28;20208;-74
2023/07/18 05:47:34;;;;;;;1.90;1.80;;;23.40;64.40;;;;;;4958617;28;20198;-72
2023/07/18 05:50:01;;;;;;;1.95;1.73;;;23.40;64.50;;;;;;4976552;28;20212;-71
2023/07/18 05:52:27;;;;;;;1.77;1.48;;;23.40;64.50;;;;;;4977893;28;20196;-72
2023/07/18 05:54:53;;;;;;;1.90;1.80;;;23.30;64.40;;;;;;4976370;28;20209;-72
2023/07/18 05:57:19;;;;;;;1.50;1.40;;;23.40;64.50;;;;;;4977774;28;20186;-72
2023/07/18 05:59:45;;;;;;;1.58;1.42;;;23.40;64.50;;;;;;4972876;28;20190;-74
2023/07/18 06:02:11;;;;;;;1.85;1.70;;;23.40;64.50;;;;;;4969256;28;20225;-72
2023/07/18 06:04:37;;;;;;;2.13;1.70;;;23.40;64.50;;;;;;4997235;28;20221;-72
2023/07/18 06:07:04;;;;;;;1.60;1.50;;;23.40;64.50;;;;;;5002953;28;20296;-72
2023/07/18 06:09:30;;;;;;;1.80;1.70;;;23.40;64.50;;;;;;4981088;28;20216;-72
2023/07/18 06:11:55;;;;;;;1.77;1.67;;;23.40;64.50;;;;;;4994599;28;20185;-74
2023/07/18 06:14:21;;;;;;;1.60;1.50;;;23.40;64.50;;;;;;4991409;28;20200;-72
2023/07/18 06:16:47;;;;;;;1.83;1.65;;;23.40;64.50;;;;;;4975015;28;20634;-72
2023/07/18 06:19:13;;;;;;;2.22;1.60;;;23.40;64.50;;;;;;5007764;28;20199;-74
2023/07/18 06:21:40;;;;;;;1.55;1.45;;;23.40;64.50;;;;;;4983576;28;20209;-72
2023/07/18 06:24:06;;;;;;;2.08;1.80;;;23.40;64.50;;;;;;4975672;28;20729;-72
2023/07/18 06:26:32;;;;;;;1.77;1.45;;;23.40;64.30;;;;;;4973727;28;20185;-72
2023/07/18 06:28:58;;;;;;;1.70;1.60;;;23.40;64.20;;;;;;5002274;28;20246;-73
2023/07/18 06:31:24;;;;;;;2.17;1.50;;;23.40;64.10;;;;;;4967485;28;20252;-72
2023/07/18 06:33:50;;;;;;;1.60;1.50;;;23.40;64.10;;;;;;4990860;28;20358;-72
2023/07/18 06:36:16;;;;;;;2.00;1.73;;;23.40;64.10;;;;;;4990835;28;20177;-72
2023/07/18 06:38:43;;;;;;;1.40;1.30;;;23.40;64.10;;;;;;4983422;28;20185;-72
2023/07/18 06:41:09;;;;;;;1.98;1.60;;;23.40;64.00;;;;;;4983199;28;20220;-72
2023/07/18 06:43:35;;;;;;;2.03;1.83;;;23.40;64.00;;;;;;4972738;28;20212;-72
2023/07/18 06:46:01;;;;;;;1.10;1.00;;;23.40;64.00;;;;;;4980444;28;20185;-72
2023/07/18 06:48:26;;;;;;;1.65;1.50;;;23.40;64.00;;;;;;4988317;28;20185;-72
2023/07/18 06:50:56;;;;;;;1.60;1.50;;;23.40;64.00;;;;;;4991129;28;20938;-73
2023/07/18 06:53:22;;;;;;;2.50;1.67;;;23.40;64.00;;;;;;4993695;28;20208;-72
2023/07/18 06:55:49;;;;;;;1.55;1.45;;;23.40;63.90;;;;;;4982995;28;20682;-72
2023/07/18 06:58:19;;;;;;;1.40;1.30;;;23.40;63.70;;;;;;4961768;28;20232;-72
2023/07/18 07:00:46;;;;;;;1.60;1.50;;;23.40;64.50;;;;;;4967142;28;20181;-72
2023/07/18 07:03:13;;;;;;;1.42;1.33;;;23.40;64.50;;;;;;4987835;28;20222;-72
2023/07/18 07:05:42;;;;;;;1.90;1.60;;;23.40;63.70;;;;;;4963199;28;20181;-72
2023/07/18 07:08:12;;;;;;;2.70;1.58;;;23.40;63.70;;;;;;4978868;28;20625;-72
2023/07/18 07:10:40;;;;;;;1.52;1.42;;;23.40;63.70;;;;;;5003544;28;20235;-72
2023/07/18 07:13:06;;;;;;;1.90;1.50;;;23.40;63.40;;;;;;4985359;28;20204;-72
2023/07/18 07:15:32;;;;;;;1.60;1.48;;;23.40;63.60;;;;;;4976163;28;20216;-72
2023/07/18 07:17:59;;;;;;;1.60;1.50;;;23.40;63.50;;;;;;4989801;28;20204;-72
2023/07/18 07:20:25;;;;;;;1.50;1.40;;;23.40;63.50;;;;;;4998773;28;20202;-72
2023/07/18 07:22:53;;;;;;;3.42;1.30;;;23.40;63.50;;;;;;4987884;28;20237;-72
2023/07/18 07:25:19;;;;;;;1.50;1.40;;;23.40;63.30;;;;;;4987820;28;20193;-72
2023/07/18 07:27:46;;;;;;;1.65;1.55;;;23.40;63.30;;;;;;4974058;28;20220;-72
2023/07/18 07:30:15;;;;;;;1.50;1.40;;;23.40;63.30;;;;;;5007029;28;20201;-72
2023/07/18 07:32:51;;;;;;;1.55;1.45;;;23.40;63.30;;;;;;4979733;28;20205;-72
2023/07/18 07:35:18;;;;;;;1.63;1.50;;;23.40;63.10;;;;;;4978970;28;20192;-73
2023/07/18 07:37:45;;;;;;;1.80;1.40;;;23.40;63.00;;;;;;5002248;28;20188;-72
2023/07/18 07:40:11;;;;;;;2.03;1.58;;;23.40;63.10;;;;;;4976114;28;20193;-72
2023/07/18 07:42:44;;;;;;;1.77;1.50;;;23.40;63.00;;;;;;4970513;28;20216;-72
2023/07/18 07:45:15;;;;;;;1.42;1.33;;;23.50;63.10;;;;;;4986100;28;20220;-72
2023/07/18 07:47:41;;;;;;;1.50;1.40;;;23.40;63.00;;;;;;4970479;28;20197;-73
2023/07/18 07:50:09;;;;;;;1.60;1.50;;;23.50;63.10;;;;;;4985309;28;20300;-74
2023/07/18 07:52:35;;;;;;;1.88;1.77;;;23.50;63.10;;;;;;4990349;28;20181;-72
2023/07/18 07:55:02;;;;;;;1.50;1.40;;;23.50;63.00;;;;;;4984428;28;20188;-72
2023/07/18 07:57:28;;;;;;;1.60;1.50;;;23.50;63.10;;;;;;4987220;28;20197;-72
2023/07/18 07:59:53;;;;;;;1.60;1.20;;;23.50;62.90;;;;;;4977984;28;20202;-72
2023/07/18 08:02:20;;;;;;;1.60;1.50;;;23.50;63.10;;;;;;4970635;28;20279;-72
2023/07/18 08:04:49;;;;;;;1.52;1.40;;;23.50;63.00;;;;;;4978740;28;20213;-72
2023/07/18 08:07:16;;;;;;;1.85;1.40;;;23.50;62.90;;;;;;4972237;28;20188;-72
2023/07/18 08:09:43;;;;;;;1.60;1.50;;;23.50;62.80;;;;;;4997774;28;20219;-72
2023/07/18 08:12:11;;;;;;;2.15;1.45;;;23.50;62.70;;;;;;4989702;28;20200;-72
2023/07/18 08:14:40;;;;;;;1.65;1.40;;;23.60;62.90;;;;;;4979619;28;20229;-72
2023/07/18 08:17:06;;;;;;;3.05;1.55;;;23.60;62.80;;;;;;4963878;28;20186;-72
2023/07/18 08:19:33;;;;;;;2.65;1.52;;;23.60;62.90;;;;;;4963931;28;20220;-71
2023/07/18 08:22:00;;;;;;;1.52;1.42;;;23.60;62.70;;;;;;4976677;28;20198;-72
2023/07/18 08:24:26;;;;;;;3.03;1.48;;;23.60;63.40;;;;;;4978600;28;20272;-72
2023/07/18 08:26:52;;;;;;;1.52;1.33;;;23.60;62.70;;;;;;4974860;28;20651;-72
2023/07/18 08:29:18;;;;;;;2.10;1.70;;;23.60;62.60;;;;;;4989355;28;20212;-72
2023/07/18 08:31:44;;;;;;;2.22;1.58;;;23.60;62.70;;;;;;4970134;28;20185;-74
2023/07/18 08:34:11;;;;;;;2.35;1.50;;;23.60;62.70;;;;;;4986141;28;20780;-72
2023/07/18 08:36:37;;;;;;;1.73;1.63;;;23.60;62.70;;;;;;4982075;28;20248;-72
2023/07/18 08:39:03;;;;;;;2.58;1.55;;;23.60;62.70;;;;;;4976040;28;20569;-73
2023/07/18 08:41:30;;;;;;;1.55;1.35;;;23.60;62.60;;;;;;4987040;28;20192;-72
2023/07/18 08:43:58;;;;;;;1.73;1.58;;;23.70;62.80;;;;;;4998838;28;20263;-72
2023/07/18 08:46:25;;;;;;;1.70;1.55;;;23.70;62.80;;;;;;4988757;28;20203;-72
2023/07/18 08:48:52;;;;;;;1.95;1.63;;;23.70;62.80;;;;;;4971393;28;20212;-72
2023/07/18 08:51:21;;;;;;;1.70;1.42;;;23.70;62.90;;;;;;5001848;28;20181;-74
2023/07/18 08:53:47;;;;;;;1.90;1.70;;;23.70;62.80;;;;;;4975269;28;20295;-73
2023/07/18 08:56:13;;;;;;;2.00;1.55;;;23.70;62.70;;;;;;4987810;28;20193;-74
2023/07/18 08:58:38;;;;;;;1.80;1.48;;;23.70;62.70;;;;;;4981743;28;20192;-71
2023/07/18 09:01:06;;;;;;;1.52;1.42;;;23.70;62.80;;;;;;4979626;28;20207;-72
2023/07/18 09:03:32;;;;;;;3.75;2.00;;;23.80;62.90;;;;;;4986536;28;20201;-72
2023/07/18 09:06:18;;;;;;;2.42;2.10;;;23.80;62.90;;;;;;5003007;28;20189;-72
2023/07/18 09:08:44;;;;;;;2.10;1.60;;;23.80;62.90;;;;;;4966756;28;20201;-72
2023/07/18 09:11:12;;;;;;;1.77;1.63;;;23.80;62.90;;;;;;4987998;28;20176;-72
2023/07/18 09:13:41;;;;;;;1.48;1.30;;;23.80;63.00;;;;;;4998709;28;20216;-72
2023/07/18 09:16:18;;;;;;;1.90;1.45;;;23.80;63.10;;;;;;4987326;28;20185;-73
2023/07/18 09:18:49;;;;;;;1.98;1.77;;;23.80;63.00;;;;;;4976598;28;20199;-74
2023/07/18 09:21:14;;;;;;;2.63;1.60;;;23.80;63.00;;;;;;4977846;28;20185;-72
2023/07/18 09:23:42;;;;;;;1.63;1.52;;;23.80;63.00;;;;;;4975285;28;20212;-72
2023/07/18 09:26:15;;;;;;;1.63;1.52;;;23.80;63.20;;;;;;4974563;28;20216;-74
2023/07/18 09:28:41;;;;;;;1.80;1.70;;;23.80;63.30;;;;;;4981088;28;20190;-71
2023/07/18 09:31:25;;;;;;;2.22;2.03;;;23.80;63.30;;;;;;4981496;28;20212;-71
2023/07/18 09:33:54;;;;;;;1.70;1.60;;;23.70;63.30;;;;;;4977043;28;20216;-72
2023/07/18 09:36:22;;;;;;;2.00;1.80;;;23.80;63.50;;;;;;4984778;28;20233;-71
2023/07/18 09:38:49;;;;;;;2.05;1.85;;;23.70;63.40;;;;;;4985039;28;20181;-71
2023/07/18 09:41:21;;;;;;;2.00;1.80;;;23.80;63.60;;;;;;4975723;28;20227;-71
2023/07/18 09:43:48;;;;;;;2.30;2.10;;;23.70;63.60;;;;;;4981787;28;20632;-71
2023/07/18 09:46:15;;;;;;;2.13;1.65;;;23.70;63.80;;;;;;4988206;28;20180;-71
2023/07/18 09:48:44;;;;;;;2.05;1.85;;;23.70;63.90;;;;;;4992049;28;20208;-71
2023/07/18 09:51:14;;;;;;;1.92;1.77;;;23.70;63.90;;;;;;4986778;28;20182;-71
2023/07/18 09:53:48;;;;;;;2.20;2.00;;;23.70;63.90;;;;;;4990979;28;20212;-71
2023/07/18 09:56:15;;;;;;;2.45;2.05;;;23.70;63.90;;;;;;4988659;28;20193;-71
2023/07/18 09:58:44;;;;;;;2.08;1.95;;;23.70;63.80;;;;;;4971422;28;20224;-71
2023/07/18 10:01:14;;;;;;;2.30;2.10;;;23.70;63.90;;;;;;4986921;28;20233;-74
2023/07/18 10:03:40;;;;;;;1.73;1.63;;;23.70;64.10;;;;;;4977851;28;20229;-72
2023/07/18 10:06:12;;;;;;;2.53;2.10;;;23.70;64.20;;;;;;4984855;28;20189;-71
2023/07/18 10:08:40;;;;;;;2.95;1.70;;;23.70;64.20;;;;;;4982439;28;20198;-71
2023/07/18 10:11:07;;;;;;;2.20;1.90;;;23.70;64.40;;;;;;4976411;28;20209;-71
2023/07/18 10:14:05;;;;;;;2.00;1.90;;;23.70;64.60;;;;;;4979943;28;20214;-70
2023/07/18 10:16:35;;;;;;;2.40;2.20;;;23.70;64.50;;;;;;4979831;28;20195;-71
2023/07/18 10:19:18;;;;;;;2.38;2.17;;;23.70;64.40;;;;;;5000526;28;20241;-71
2023/07/18 10:21:49;;;;;;;2.10;1.90;;;23.70;64.40;;;;;;4987415;28;20284;-71
2023/07/18 10:24:21;;;;;;;2.78;2.50;;;23.70;64.40;;;;;;4986452;28;20205;-71
2023/07/18 10:26:50;;;;;;;2.40;2.17;;;23.70;64.40;;;;;;4968322;28;20188;-73
2023/07/18 10:29:17;;;;;;;2.25;2.03;;;23.70;64.40;;;;;;4982848;28;20224;-73
2023/07/18 10:31:42;;;;;;;3.28;2.28;;;23.70;64.60;;;;;;4974076;28;20239;-72
2023/07/18 10:34:12;;;;;;;2.45;2.22;;;23.70;64.50;;;;;;4982352;28;20210;-73
2023/07/18 10:36:38;;;;;;;2.45;2.25;;;23.70;64.80;;;;;;4971752;28;20189;-70
2023/07/18 10:39:12;;;;;;;2.90;2.20;;;23.70;64.60;;;;;;4980034;28;20196;-72
2023/07/18 10:41:45;;;;;;;2.25;2.05;;;23.70;64.60;;;;;;4975085;28;20229;-70
2023/07/18 10:44:14;;;;;;;2.03;1.80;;;23.70;64.50;;;;;;4981266;28;20215;-71
2023/07/18 10:46:40;;;;;;;3.17;2.20;;;23.70;64.40;;;;;;4977873;28;20199;-70
2023/07/18 10:49:07;;;;;;;2.85;2.08;;;23.70;64.50;;;;;;4988167;28;20385;-71
2023/07/18 10:51:34;;;;;;;2.40;2.20;;;23.70;64.30;;;;;;4975348;28;20841;-71
2023/07/18 10:54:00;;;;;;;2.25;2.08;;;23.70;64.50;;;;;;4980128;28;20213;-71
2023/07/18 10:56:27;;;;;;;2.10;2.00;;;23.70;64.50;;;;;;4980616;28;20276;-71
2023/07/18 10:58:56;;;;;;;4.18;2.97;;;23.70;64.80;;;;;;4989936;28;20232;-71
2023/07/18 11:01:27;;;;;;;3.40;2.40;;;23.70;64.80;;;;;;4983463;28;20197;-72
2023/07/18 11:03:53;;;;;;;2.95;2.65;;;23.70;64.50;;;;;;4984043;28;20215;-71
2023/07/18 11:06:21;;;;;;;3.17;2.60;;;23.70;64.60;;;;;;4975807;28;20268;-72
2023/07/18 11:08:47;;;;;;;3.00;2.72;;;23.70;64.80;;;;;;4976269;28;20189;-71
2023/07/18 11:11:17;;;;;;;2.58;2.38;;;23.70;64.90;;;;;;4973400;28;20182;-71
2023/07/18 11:13:43;;;;;;;2.63;2.42;;;23.70;64.90;;;;;;4981222;28;20209;-70
2023/07/18 11:16:14;;;;;;;2.47;2.05;;;23.70;64.90;;;;;;4979229;28;20192;-74
2023/07/18 11:18:44;;;;;;;2.78;2.47;;;23.70;64.90;;;;;;4982343;28;20189;-71
2023/07/18 11:21:12;;;;;;;2.75;2.47;;;23.70;64.90;;;;;;4994008;28;20197;-73
2023/07/18 11:23:40;;;;;;;2.60;2.40;;;23.80;65.00;;;;;;4973416;28;20218;-71
2023/07/18 11:26:17;;;;;;;2.60;2.40;;;23.70;64.90;;;;;;4979183;28;20186;-71
2023/07/18 11:28:49;;;;;;;2.58;2.03;;;23.70;64.90;;;;;;5003765;28;20188;-71
2023/07/18 11:31:30;;;;;;;2.95;2.65;;;23.70;64.90;;;;;;5001845;28;20565;-71
2023/07/18 11:34:01;;;;;;;2.78;2.45;;;23.70;64.90;;;;;;4967026;28;20208;-74
2023/07/18 11:36:32;;;;;;;2.88;2.63;;;23.80;65.00;;;;;;4980222;28;20189;-74
2023/07/18 11:39:01;;;;;;;2.83;2.60;;;23.80;65.00;;;;;;4980857;28;20197;-73
2023/07/18 11:41:38;;;;;;;2.65;2.45;;;23.80;65.00;;;;;;4992711;28;20204;-73
2023/07/18 11:44:05;;;;;;;3.00;2.70;;;23.80;65.00;;;;;;4980526;28;20274;-73
2023/07/18 11:46:44;;;;;;;3.92;2.80;;;23.80;65.10;;;;;;4980950;28;20247;-74
2023/07/18 11:49:12;;;;;;;4.80;2.90;;;23.80;65.10;;;;;;4980532;28;20703;-74
2023/07/18 11:51:41;;;;;;;4.20;2.72;;;23.70;65.20;;;;;;4970576;28;20276;-73
2023/07/18 11:54:07;;;;;;;2.70;2.50;;;23.80;65.50;;;;;;4968915;28;20210;-73
2023/07/18 11:56:34;;;;;;;2.55;2.20;;;23.70;65.50;;;;;;4979905;28;20193;-74
2023/07/18 11:59:01;;;;;;;2.40;2.20;;;23.70;65.50;;;;;;4985550;28;20181;-73
2023/07/18 12:01:27;;;;;;;2.83;2.63;;;23.70;65.30;;;;;;4979075;28;20213;-74
2023/07/18 12:03:54;;;;;;;2.97;2.72;;;23.80;65.50;;;;;;4997953;28;20205;-74
2023/07/18 12:06:21;;;;;;;3.20;2.50;;;23.80;65.60;;;;;;4979675;28;20200;-74
2023/07/18 12:08:49;;;;;;;3.08;2.60;;;23.70;65.50;;;;;;4964762;28;20181;-74
2023/07/18 12:11:16;;;;;;;3.50;2.38;;;23.80;65.50;;;;;;4977088;28;20195;-74
2023/07/18 12:13:43;;;;;;;3.45;2.65;;;23.80;65.60;;;;;;4989631;28;20750;-73
2023/07/18 12:16:09;;;;;;;2.80;2.47;;;23.80;65.60;;;;;;4990853;28;20259;-74
2023/07/18 12:18:36;;;;;;;3.53;2.45;;;23.80;65.70;;;;;;4981440;28;20608;-74
2023/07/18 12:21:02;;;;;;;2.97;2.40;;;23.80;65.80;;;;;;4973273;28;20251;-73
2023/07/18 12:27:36;;;;;;;2.40;2.20;;;23.80;65.80;;;;;;4984569;28;20243;-73
2023/07/18 12:30:03;;;;;;;3.10;2.78;;;23.80;65.80;;;;;;4986336;28;20210;-74
2023/07/18 12:32:29;;;;;;;2.50;2.30;;;23.80;65.80;;;;;;4944279;28;20193;-74
2023/07/18 12:34:55;;;;;;;3.00;2.70;;;23.80;65.70;;;;;;4972883;28;20200;-73
2023/07/18 12:37:21;;;;;;;3.58;2.70;;;23.80;65.80;;;;;;4987480;28;20181;-74
2023/07/18 12:39:47;;;;;;;3.25;2.55;;;23.80;65.90;;;;;;4985466;28;20216;-73
2023/07/18 12:42:13;;;;;;;2.75;2.20;;;23.80;66.00;;;;;;4961362;28;20215;-73
2023/07/18 12:44:44;;;;;;;3.28;2.70;;;23.80;66.10;;;;;;4964150;28;20245;-74
2023/07/18 12:47:10;;;;;;;3.58;2.88;;;23.80;66.10;;;;;;4969562;28;20181;-73
2023/07/18 12:49:36;;;;;;;4.20;3.20;;;23.80;65.90;;;;;;4966597;28;20212;-74
2023/07/18 12:52:06;;;;;;;3.33;3.03;;;23.80;66.00;;;;;;4966611;28;20268;-73
2023/07/18 12:54:35;;;;;;;2.92;2.65;;;23.90;66.00;;;;;;4973325;28;20220;-73
2023/07/18 12:57:01;;;;;;;3.25;2.70;;;23.90;66.20;;;;;;4963406;28;20193;-73